Terminal Aerodrome Forecast
Issued by NWS

Home | Current Version | Previous Version | Graphics & Text | Print | Product List | Glossary On
Versions: 1 2 3 4 5 6 7 8 9 10 11 12 13 14 15 16 17 18 19 20 21 22 23 24 25 26 27 28 29 30 31 32
163
FTUS43 KLOT 261436 AAA
TAFORD
TAF AMD
KORD 261436Z 2615/2718 15009KT 3SM -RADZ BR OVC006
     FM261700 18008KT 5SM BR VCSH BKN010 OVC020
     FM261900 20007KT 5SM BR VCSH BKN015 OVC024
     FM270400 25005KT 5SM BR OVC009
     FM270900 31005KT 3SM BR SCT004 OVC007
     FM271500 04006KT P6SM OVC010=

USA.gov is the U.S. government's official web portal to all federal, state and local government web resources and services.